sensor_id;sensor_type;location;lat;lon;timestamp;P1;durP1;ratioP1;P2;durP2;ratioP2
73089;SDS011;61269;49.450;8.610;2023-04-24T00:01:49;1.80;;;0.73;;
73089;SDS011;61269;49.450;8.610;2023-04-24T00:04:17;1.50;;;0.60;;
73089;SDS011;61269;49.450;8.610;2023-04-24T00:06:46;1.55;;;0.65;;
73089;SDS011;61269;49.450;8.610;2023-04-24T00:09:16;1.98;;;0.80;;
73089;SDS011;61269;49.450;8.610;2023-04-24T00:11:44;1.50;;;0.85;;
73089;SDS011;61269;49.450;8.610;2023-04-24T00:14:12;1.42;;;0.70;;
73089;SDS011;61269;49.450;8.610;2023-04-24T00:16:42;1.63;;;0.90;;
73089;SDS011;61269;49.450;8.610;2023-04-24T00:19:10;1.73;;;0.50;;
73089;SDS011;61269;49.450;8.610;2023-04-24T00:21:39;1.15;;;0.60;;
73089;SDS011;61269;49.450;8.610;2023-04-24T00:24:08;1.25;;;0.60;;
73089;SDS011;61269;49.450;8.610;2023-04-24T00:26:36;1.55;;;0.75;;
73089;SDS011;61269;49.450;8.610;2023-04-24T00:29:04;1.67;;;0.80;;
73089;SDS011;61269;49.450;8.610;2023-04-24T00:31:32;1.75;;;0.90;;
73089;SDS011;61269;49.450;8.610;2023-04-24T00:34:03;1.98;;;0.80;;
73089;SDS011;61269;49.450;8.610;2023-04-24T00:36:32;1.10;;;0.50;;
73089;SDS011;61269;49.450;8.610;2023-04-24T00:39:00;2.58;;;0.88;;
73089;SDS011;61269;49.450;8.610;2023-04-24T00:41:28;1.20;;;0.47;;
73089;SDS011;61269;49.450;8.610;2023-04-24T00:43:57;1.85;;;0.70;;
73089;SDS011;61269;49.450;8.610;2023-04-24T00:46:25;2.08;;;0.80;;
73089;SDS011;61269;49.450;8.610;2023-04-24T00:48:54;2.25;;;0.45;;
73089;SDS011;61269;49.450;8.610;2023-04-24T00:51:25;1.65;;;0.77;;
73089;SDS011;61269;49.450;8.610;2023-04-24T00:53:54;1.30;;;0.67;;
73089;SDS011;61269;49.450;8.610;2023-04-24T00:56:22;3.45;;;0.60;;
73089;SDS011;61269;49.450;8.610;2023-04-24T00:58:51;1.92;;;0.60;;
73089;SDS011;61269;49.450;8.610;2023-04-24T01:01:19;1.40;;;0.70;;
73089;SDS011;61269;49.450;8.610;2023-04-24T01:03:50;2.42;;;0.90;;
73089;SDS011;61269;49.450;8.610;2023-04-24T01:06:19;3.33;;;1.00;;
73089;SDS011;61269;49.450;8.610;2023-04-24T01:08:49;1.35;;;0.70;;
73089;SDS011;61269;49.450;8.610;2023-04-24T01:11:17;1.58;;;0.50;;
73089;SDS011;61269;49.450;8.610;2023-04-24T01:13:47;1.00;;;0.60;;
73089;SDS011;61269;49.450;8.610;2023-04-24T01:16:15;1.67;;;0.70;;
73089;SDS011;61269;49.450;8.610;2023-04-24T01:18:44;1.47;;;0.70;;
73089;SDS011;61269;49.450;8.610;2023-04-24T01:21:13;1.80;;;0.75;;
73089;SDS011;61269;49.450;8.610;2023-04-24T01:23:44;2.35;;;0.60;;
73089;SDS011;61269;49.450;8.610;2023-04-24T01:26:13;1.98;;;0.57;;
73089;SDS011;61269;49.450;8.610;2023-04-24T01:28:44;1.92;;;0.70;;
73089;SDS011;61269;49.450;8.610;2023-04-24T01:31:12;3.07;;;0.53;;
73089;SDS011;61269;49.450;8.610;2023-04-24T01:33:40;3.15;;;0.70;;
73089;SDS011;61269;49.450;8.610;2023-04-24T01:36:09;1.73;;;0.90;;
73089;SDS011;61269;49.450;8.610;2023-04-24T01:38:38;1.73;;;0.70;;
73089;SDS011;61269;49.450;8.610;2023-04-24T01:41:08;1.60;;;0.70;;
73089;SDS011;61269;49.450;8.610;2023-04-24T01:43:36;1.10;;;0.60;;
73089;SDS011;61269;49.450;8.610;2023-04-24T01:46:04;1.90;;;0.70;;
73089;SDS011;61269;49.450;8.610;2023-04-24T01:48:35;1.60;;;0.70;;
73089;SDS011;61269;49.450;8.610;2023-04-24T01:51:03;1.25;;;0.70;;
73089;SDS011;61269;49.450;8.610;2023-04-24T01:53:32;1.77;;;0.73;;
73089;SDS011;61269;49.450;8.610;2023-04-24T01:56:02;2.10;;;0.87;;
73089;SDS011;61269;49.450;8.610;2023-04-24T01:58:32;1.75;;;0.65;;
73089;SDS011;61269;49.450;8.610;2023-04-24T02:01:01;1.65;;;0.70;;
73089;SDS011;61269;49.450;8.610;2023-04-24T02:03:29;1.90;;;0.65;;
73089;SDS011;61269;49.450;8.610;2023-04-24T02:05:58;1.77;;;0.60;;
73089;SDS011;61269;49.450;8.610;2023-04-24T02:08:26;4.20;;;1.60;;
73089;SDS011;61269;49.450;8.610;2023-04-24T02:10:54;1.38;;;0.77;;
73089;SDS011;61269;49.450;8.610;2023-04-24T02:13:24;1.10;;;0.50;;
73089;SDS011;61269;49.450;8.610;2023-04-24T02:15:53;2.50;;;0.70;;
73089;SDS011;61269;49.450;8.610;2023-04-24T02:18:23;1.58;;;0.88;;
73089;SDS011;61269;49.450;8.610;2023-04-24T02:20:51;3.27;;;0.80;;
73089;SDS011;61269;49.450;8.610;2023-04-24T02:23:20;1.30;;;0.70;;
73089;SDS011;61269;49.450;8.610;2023-04-24T02:25:48;1.30;;;0.70;;
73089;SDS011;61269;49.450;8.610;2023-04-24T02:28:17;1.73;;;0.75;;
73089;SDS011;61269;49.450;8.610;2023-04-24T02:30:45;2.08;;;0.90;;
73089;SDS011;61269;49.450;8.610;2023-04-24T02:33:14;2.67;;;0.70;;
73089;SDS011;61269;49.450;8.610;2023-04-24T02:35:42;1.50;;;0.70;;
73089;SDS011;61269;49.450;8.610;2023-04-24T02:38:11;1.25;;;0.60;;
73089;SDS011;61269;49.450;8.610;2023-04-24T02:40:39;1.55;;;0.70;;
73089;SDS011;61269;49.450;8.610;2023-04-24T02:43:09;1.52;;;0.90;;
73089;SDS011;61269;49.450;8.610;2023-04-24T02:45:37;2.00;;;0.77;;
73089;SDS011;61269;49.450;8.610;2023-04-24T02:48:06;2.03;;;1.00;;
73089;SDS011;61269;49.450;8.610;2023-04-24T02:50:35;1.40;;;0.77;;
73089;SDS011;61269;49.450;8.610;2023-04-24T02:53:03;1.85;;;0.80;;
73089;SDS011;61269;49.450;8.610;2023-04-24T02:55:31;1.70;;;0.90;;
73089;SDS011;61269;49.450;8.610;2023-04-24T02:57:59;1.50;;;0.80;;
73089;SDS011;61269;49.450;8.610;2023-04-24T03:00:28;1.70;;;0.90;;
73089;SDS011;61269;49.450;8.610;2023-04-24T03:02:56;1.80;;;0.88;;
73089;SDS011;61269;49.450;8.610;2023-04-24T03:05:24;1.92;;;0.70;;
73089;SDS011;61269;49.450;8.610;2023-04-24T03:07:55;1.50;;;0.77;;
73089;SDS011;61269;49.450;8.610;2023-04-24T03:10:23;2.20;;;0.80;;
73089;SDS011;61269;49.450;8.610;2023-04-24T03:12:51;1.63;;;0.90;;
73089;SDS011;61269;49.450;8.610;2023-04-24T03:15:21;2.67;;;0.93;;
73089;SDS011;61269;49.450;8.610;2023-04-24T03:17:49;2.28;;;0.90;;
73089;SDS011;61269;49.450;8.610;2023-04-24T03:20:19;2.00;;;0.98;;
73089;SDS011;61269;49.450;8.610;2023-04-24T03:22:48;2.43;;;1.00;;
73089;SDS011;61269;49.450;8.610;2023-04-24T03:25:17;3.65;;;1.05;;
73089;SDS011;61269;49.450;8.610;2023-04-24T03:27:46;1.52;;;0.82;;
73089;SDS011;61269;49.450;8.610;2023-04-24T03:30:32;2.65;;;0.98;;
73089;SDS011;61269;49.450;8.610;2023-04-24T03:33:01;2.63;;;1.20;;
73089;SDS011;61269;49.450;8.610;2023-04-24T03:35:33;1.77;;;0.93;;
73089;SDS011;61269;49.450;8.610;2023-04-24T03:38:04;2.67;;;0.98;;
73089;SDS011;61269;49.450;8.610;2023-04-24T03:40:53;2.00;;;1.10;;
73089;SDS011;61269;49.450;8.610;2023-04-24T03:43:37;3.63;;;1.25;;
73089;SDS011;61269;49.450;8.610;2023-04-24T03:46:06;3.47;;;0.90;;
73089;SDS011;61269;49.450;8.610;2023-04-24T03:48:40;1.70;;;0.80;;
73089;SDS011;61269;49.450;8.610;2023-04-24T03:51:09;3.15;;;1.10;;
73089;SDS011;61269;49.450;8.610;2023-04-24T03:53:40;2.17;;;1.08;;
73089;SDS011;61269;49.450;8.610;2023-04-24T03:56:12;2.75;;;1.20;;
73089;SDS011;61269;49.450;8.610;2023-04-24T03:58:41;2.38;;;1.08;;
73089;SDS011;61269;49.450;8.610;2023-04-24T04:01:10;2.27;;;1.00;;
73089;SDS011;61269;49.450;8.610;2023-04-24T04:03:38;1.85;;;0.93;;
73089;SDS011;61269;49.450;8.610;2023-04-24T04:06:07;2.05;;;1.00;;
73089;SDS011;61269;49.450;8.610;2023-04-24T04:08:38;2.35;;;1.08;;
73089;SDS011;61269;49.450;8.610;2023-04-24T04:11:06;2.45;;;1.02;;
73089;SDS011;61269;49.450;8.610;2023-04-24T04:13:35;1.90;;;0.80;;
73089;SDS011;61269;49.450;8.610;2023-04-24T04:16:04;1.95;;;1.00;;
73089;SDS011;61269;49.450;8.610;2023-04-24T04:18:33;1.90;;;0.90;;
73089;SDS011;61269;49.450;8.610;2023-04-24T04:21:01;2.90;;;0.93;;
73089;SDS011;61269;49.450;8.610;2023-04-24T04:23:30;2.33;;;1.00;;
73089;SDS011;61269;49.450;8.610;2023-04-24T04:26:11;2.67;;;1.03;;
73089;SDS011;61269;49.450;8.610;2023-04-24T04:28:56;2.00;;;1.00;;
73089;SDS011;61269;49.450;8.610;2023-04-24T04:31:24;2.67;;;1.17;;
73089;SDS011;61269;49.450;8.610;2023-04-24T04:33:52;4.35;;;1.50;;
73089;SDS011;61269;49.450;8.610;2023-04-24T04:36:21;1.88;;;0.88;;
73089;SDS011;61269;49.450;8.610;2023-04-24T04:38:57;2.23;;;0.93;;
73089;SDS011;61269;49.450;8.610;2023-04-24T04:41:49;2.47;;;1.10;;
73089;SDS011;61269;49.450;8.610;2023-04-24T04:44:21;2.03;;;0.98;;
73089;SDS011;61269;49.450;8.610;2023-04-24T04:46:50;3.08;;;1.20;;
73089;SDS011;61269;49.450;8.610;2023-04-24T04:49:26;2.42;;;0.90;;
73089;SDS011;61269;49.450;8.610;2023-04-24T04:51:55;2.17;;;0.80;;
73089;SDS011;61269;49.450;8.610;2023-04-24T04:54:25;2.50;;;1.17;;
73089;SDS011;61269;49.450;8.610;2023-04-24T04:56:55;2.47;;;1.08;;
73089;SDS011;61269;49.450;8.610;2023-04-24T04:59:25;1.90;;;1.05;;
73089;SDS011;61269;49.450;8.610;2023-04-24T05:02:00;3.20;;;1.35;;
73089;SDS011;61269;49.450;8.610;2023-04-24T05:04:30;2.53;;;0.90;;
73089;SDS011;61269;49.450;8.610;2023-04-24T05:06:59;3.53;;;1.27;;
73089;SDS011;61269;49.450;8.610;2023-04-24T05:09:30;3.45;;;1.50;;
73089;SDS011;61269;49.450;8.610;2023-04-24T05:12:02;5.05;;;1.55;;
73089;SDS011;61269;49.450;8.610;2023-04-24T05:14:37;2.50;;;1.27;;
73089;SDS011;61269;49.450;8.610;2023-04-24T05:17:05;2.97;;;1.23;;
73089;SDS011;61269;49.450;8.610;2023-04-24T05:19:34;2.88;;;1.40;;
73089;SDS011;61269;49.450;8.610;2023-04-24T05:22:05;3.42;;;1.10;;
73089;SDS011;61269;49.450;8.610;2023-04-24T05:24:39;2.78;;;1.35;;
73089;SDS011;61269;49.450;8.610;2023-04-24T05:27:31;3.58;;;1.35;;
73089;SDS011;61269;49.450;8.610;2023-04-24T05:30:01;2.57;;;1.20;;
73089;SDS011;61269;49.450;8.610;2023-04-24T05:32:31;3.15;;;1.35;;
73089;SDS011;61269;49.450;8.610;2023-04-24T05:34:59;6.00;;;1.60;;
73089;SDS011;61269;49.450;8.610;2023-04-24T05:37:27;3.03;;;1.50;;
73089;SDS011;61269;49.450;8.610;2023-04-24T05:39:56;4.20;;;1.50;;
73089;SDS011;61269;49.450;8.610;2023-04-24T05:42:24;4.27;;;1.50;;
73089;SDS011;61269;49.450;8.610;2023-04-24T05:44:52;3.83;;;1.50;;
73089;SDS011;61269;49.450;8.610;2023-04-24T05:47:25;3.28;;;1.40;;
73089;SDS011;61269;49.450;8.610;2023-04-24T05:49:54;2.90;;;1.60;;
73089;SDS011;61269;49.450;8.610;2023-04-24T05:52:22;3.58;;;1.38;;
73089;SDS011;61269;49.450;8.610;2023-04-24T05:54:50;3.97;;;1.57;;
73089;SDS011;61269;49.450;8.610;2023-04-24T05:57:23;5.07;;;1.75;;
73089;SDS011;61269;49.450;8.610;2023-04-24T05:59:54;4.97;;;1.67;;
73089;SDS011;61269;49.450;8.610;2023-04-24T06:02:22;4.05;;;1.65;;
73089;SDS011;61269;49.450;8.610;2023-04-24T06:04:53;3.63;;;1.52;;
73089;SDS011;61269;49.450;8.610;2023-04-24T06:07:23;4.20;;;2.07;;
73089;SDS011;61269;49.450;8.610;2023-04-24T06:09:51;6.13;;;2.00;;
73089;SDS011;61269;49.450;8.610;2023-04-24T06:12:19;4.45;;;1.98;;
73089;SDS011;61269;49.450;8.610;2023-04-24T06:14:55;4.65;;;1.30;;
73089;SDS011;61269;49.450;8.610;2023-04-24T06:17:30;4.03;;;1.88;;
73089;SDS011;61269;49.450;8.610;2023-04-24T06:20:01;3.27;;;1.53;;
73089;SDS011;61269;49.450;8.610;2023-04-24T06:22:30;3.03;;;1.30;;
73089;SDS011;61269;49.450;8.610;2023-04-24T06:24:59;4.63;;;1.33;;
73089;SDS011;61269;49.450;8.610;2023-04-24T06:27:27;5.50;;;1.73;;
73089;SDS011;61269;49.450;8.610;2023-04-24T06:29:55;3.25;;;1.63;;
73089;SDS011;61269;49.450;8.610;2023-04-24T06:32:23;3.60;;;1.50;;
73089;SDS011;61269;49.450;8.610;2023-04-24T06:34:52;2.95;;;1.52;;
73089;SDS011;61269;49.450;8.610;2023-04-24T06:37:22;3.42;;;1.70;;
73089;SDS011;61269;49.450;8.610;2023-04-24T06:39:50;4.00;;;1.50;;
73089;SDS011;61269;49.450;8.610;2023-04-24T06:42:18;2.50;;;1.30;;
73089;SDS011;61269;49.450;8.610;2023-04-24T06:44:49;2.87;;;1.20;;
73089;SDS011;61269;49.450;8.610;2023-04-24T06:47:17;3.50;;;1.60;;
73089;SDS011;61269;49.450;8.610;2023-04-24T06:49:45;3.38;;;1.30;;
73089;SDS011;61269;49.450;8.610;2023-04-24T06:52:13;3.70;;;1.30;;
73089;SDS011;61269;49.450;8.610;2023-04-24T06:54:43;2.55;;;1.38;;
73089;SDS011;61269;49.450;8.610;2023-04-24T06:57:11;1.70;;;0.73;;
73089;SDS011;61269;49.450;8.610;2023-04-24T06:59:39;2.10;;;1.00;;
73089;SDS011;61269;49.450;8.610;2023-04-24T07:02:07;3.47;;;1.08;;
73089;SDS011;61269;49.450;8.610;2023-04-24T07:04:36;1.35;;;0.80;;
73089;SDS011;61269;49.450;8.610;2023-04-24T07:07:04;2.20;;;1.08;;
73089;SDS011;61269;49.450;8.610;2023-04-24T07:09:33;2.10;;;1.20;;
73089;SDS011;61269;49.450;8.610;2023-04-24T07:12:06;2.80;;;1.13;;
73089;SDS011;61269;49.450;8.610;2023-04-24T07:14:35;1.88;;;1.10;;
73089;SDS011;61269;49.450;8.610;2023-04-24T07:17:03;1.88;;;0.98;;
73089;SDS011;61269;49.450;8.610;2023-04-24T07:19:32;1.90;;;1.05;;
73089;SDS011;61269;49.450;8.610;2023-04-24T07:22:01;1.50;;;0.80;;
73089;SDS011;61269;49.450;8.610;2023-04-24T07:24:30;1.80;;;1.08;;
73089;SDS011;61269;49.450;8.610;2023-04-24T07:26:58;1.40;;;0.70;;
73089;SDS011;61269;49.450;8.610;2023-04-24T07:29:29;2.00;;;0.82;;
73089;SDS011;61269;49.450;8.610;2023-04-24T07:31:57;2.78;;;0.82;;
73089;SDS011;61269;49.450;8.610;2023-04-24T07:34:27;1.53;;;0.77;;
73089;SDS011;61269;49.450;8.610;2023-04-24T07:36:55;1.30;;;0.75;;
73089;SDS011;61269;49.450;8.610;2023-04-24T07:39:24;1.27;;;0.73;;
73089;SDS011;61269;49.450;8.610;2023-04-24T07:41:52;2.45;;;1.10;;
73089;SDS011;61269;49.450;8.610;2023-04-24T07:44:21;1.25;;;0.80;;
73089;SDS011;61269;49.450;8.610;2023-04-24T07:46:50;1.40;;;0.57;;
73089;SDS011;61269;49.450;8.610;2023-04-24T07:49:19;1.90;;;1.00;;
73089;SDS011;61269;49.450;8.610;2023-04-24T07:51:47;1.73;;;1.10;;
73089;SDS011;61269;49.450;8.610;2023-04-24T07:54:15;1.95;;;0.88;;
73089;SDS011;61269;49.450;8.610;2023-04-24T07:56:43;2.40;;;1.05;;
73089;SDS011;61269;49.450;8.610;2023-04-24T07:59:12;1.50;;;0.70;;
73089;SDS011;61269;49.450;8.610;2023-04-24T08:01:40;2.63;;;1.23;;
73089;SDS011;61269;49.450;8.610;2023-04-24T08:04:09;2.00;;;0.80;;
73089;SDS011;61269;49.450;8.610;2023-04-24T08:06:37;1.48;;;0.80;;
73089;SDS011;61269;49.450;8.610;2023-04-24T08:09:06;2.03;;;1.02;;
73089;SDS011;61269;49.450;8.610;2023-04-24T08:11:34;4.00;;;1.00;;
73089;SDS011;61269;49.450;8.610;2023-04-24T08:14:02;2.03;;;1.10;;
73089;SDS011;61269;49.450;8.610;2023-04-24T08:16:31;2.25;;;1.15;;
73089;SDS011;61269;49.450;8.610;2023-04-24T08:19:00;1.40;;;0.77;;
73089;SDS011;61269;49.450;8.610;2023-04-24T08:21:29;2.25;;;1.00;;
73089;SDS011;61269;49.450;8.610;2023-04-24T08:23:58;1.37;;;0.63;;
73089;SDS011;61269;49.450;8.610;2023-04-24T08:26:27;1.85;;;1.00;;
73089;SDS011;61269;49.450;8.610;2023-04-24T08:28:55;2.17;;;1.10;;
73089;SDS011;61269;49.450;8.610;2023-04-24T08:31:23;1.77;;;0.90;;
73089;SDS011;61269;49.450;8.610;2023-04-24T08:33:53;4.38;;;1.30;;
73089;SDS011;61269;49.450;8.610;2023-04-24T08:36:21;1.63;;;0.77;;
73089;SDS011;61269;49.450;8.610;2023-04-24T08:39:00;2.42;;;0.90;;
73089;SDS011;61269;49.450;8.610;2023-04-24T08:41:28;1.70;;;0.90;;
73089;SDS011;61269;49.450;8.610;2023-04-24T08:43:57;1.85;;;1.02;;
73089;SDS011;61269;49.450;8.610;2023-04-24T08:46:25;3.17;;;1.25;;
73089;SDS011;61269;49.450;8.610;2023-04-24T08:48:54;1.67;;;0.87;;
73089;SDS011;61269;49.450;8.610;2023-04-24T08:51:22;2.70;;;1.15;;
73089;SDS011;61269;49.450;8.610;2023-04-24T08:53:51;2.38;;;1.02;;
73089;SDS011;61269;49.450;8.610;2023-04-24T08:56:21;2.92;;;1.02;;
73089;SDS011;61269;49.450;8.610;2023-04-24T08:58:51;2.50;;;1.10;;
73089;SDS011;61269;49.450;8.610;2023-04-24T09:01:19;2.47;;;1.00;;
73089;SDS011;61269;49.450;8.610;2023-04-24T09:03:48;1.88;;;0.90;;
73089;SDS011;61269;49.450;8.610;2023-04-24T09:06:17;2.88;;;1.15;;
73089;SDS011;61269;49.450;8.610;2023-04-24T09:08:45;3.05;;;1.00;;
73089;SDS011;61269;49.450;8.610;2023-04-24T09:11:15;1.73;;;1.10;;
73089;SDS011;61269;49.450;8.610;2023-04-24T09:13:44;1.83;;;1.00;;
73089;SDS011;61269;49.450;8.610;2023-04-24T09:16:13;2.10;;;1.05;;
73089;SDS011;61269;49.450;8.610;2023-04-24T09:18:42;1.75;;;0.75;;
73089;SDS011;61269;49.450;8.610;2023-04-24T09:21:13;3.10;;;1.08;;
73089;SDS011;61269;49.450;8.610;2023-04-24T09:23:41;3.60;;;1.25;;
73089;SDS011;61269;49.450;8.610;2023-04-24T09:26:09;5.10;;;1.80;;
73089;SDS011;61269;49.450;8.610;2023-04-24T09:28:38;3.30;;;1.40;;
73089;SDS011;61269;49.450;8.610;2023-04-24T09:31:09;2.42;;;1.15;;
73089;SDS011;61269;49.450;8.610;2023-04-24T09:33:42;2.03;;;1.05;;
73089;SDS011;61269;49.450;8.610;2023-04-24T09:36:26;4.68;;;1.58;;
73089;SDS011;61269;49.450;8.610;2023-04-24T09:38:57;2.93;;;1.60;;
73089;SDS011;61269;49.450;8.610;2023-04-24T09:41:26;2.85;;;1.10;;
73089;SDS011;61269;49.450;8.610;2023-04-24T09:43:55;2.47;;;1.30;;
73089;SDS011;61269;49.450;8.610;2023-04-24T09:46:30;2.50;;;1.38;;
73089;SDS011;61269;49.450;8.610;2023-04-24T09:49:04;2.13;;;1.10;;
73089;SDS011;61269;49.450;8.610;2023-04-24T09:51:37;1.67;;;0.90;;
73089;SDS011;61269;49.450;8.610;2023-04-24T09:54:11;1.70;;;0.88;;
73089;SDS011;61269;49.450;8.610;2023-04-24T09:56:42;2.22;;;1.20;;
73089;SDS011;61269;49.450;8.610;2023-04-24T09:59:12;2.55;;;1.40;;
73089;SDS011;61269;49.450;8.610;2023-04-24T10:01:42;2.20;;;1.00;;
73089;SDS011;61269;49.450;8.610;2023-04-24T10:04:15;2.97;;;1.27;;
73089;SDS011;61269;49.450;8.610;2023-04-24T10:06:45;3.55;;;1.40;;
73089;SDS011;61269;49.450;8.610;2023-04-24T10:09:13;2.08;;;1.20;;
73089;SDS011;61269;49.450;8.610;2023-04-24T10:11:42;2.28;;;1.23;;
73089;SDS011;61269;49.450;8.610;2023-04-24T10:14:13;2.53;;;1.40;;
73089;SDS011;61269;49.450;8.610;2023-04-24T10:16:43;3.30;;;1.43;;
73089;SDS011;61269;49.450;8.610;2023-04-24T10:19:13;1.95;;;1.02;;
73089;SDS011;61269;49.450;8.610;2023-04-24T10:21:42;2.83;;;1.63;;
73089;SDS011;61269;49.450;8.610;2023-04-24T10:24:13;3.22;;;1.58;;
73089;SDS011;61269;49.450;8.610;2023-04-24T10:26:42;1.33;;;0.88;;
73089;SDS011;61269;49.450;8.610;2023-04-24T10:29:11;1.67;;;1.00;;
73089;SDS011;61269;49.450;8.610;2023-04-24T10:31:43;2.13;;;0.93;;
73089;SDS011;61269;49.450;8.610;2023-04-24T10:34:14;2.70;;;1.25;;
73089;SDS011;61269;49.450;8.610;2023-04-24T10:36:44;2.08;;;1.02;;
73089;SDS011;61269;49.450;8.610;2023-04-24T10:39:14;2.17;;;1.42;;
73089;SDS011;61269;49.450;8.610;2023-04-24T10:41:43;1.50;;;1.00;;
73089;SDS011;61269;49.450;8.610;2023-04-24T10:44:12;2.22;;;1.50;;
73089;SDS011;61269;49.450;8.610;2023-04-24T10:46:44;3.38;;;1.45;;
73089;SDS011;61269;49.450;8.610;2023-04-24T10:49:14;2.65;;;1.27;;
73089;SDS011;61269;49.450;8.610;2023-04-24T10:51:44;2.55;;;1.27;;
73089;SDS011;61269;49.450;8.610;2023-04-24T10:54:23;4.10;;;1.30;;
73089;SDS011;61269;49.450;8.610;2023-04-24T10:56:52;2.22;;;1.05;;
73089;SDS011;61269;49.450;8.610;2023-04-24T10:59:23;2.47;;;1.40;;
73089;SDS011;61269;49.450;8.610;2023-04-24T11:01:54;2.92;;;1.30;;
73089;SDS011;61269;49.450;8.610;2023-04-24T11:04:29;2.28;;;1.40;;
73089;SDS011;61269;49.450;8.610;2023-04-24T11:06:58;3.57;;;1.30;;
73089;SDS011;61269;49.450;8.610;2023-04-24T11:09:28;3.13;;;1.20;;
73089;SDS011;61269;49.450;8.610;2023-04-24T11:12:04;2.63;;;1.50;;
73089;SDS011;61269;49.450;8.610;2023-04-24T11:17:32;3.53;;;1.40;;
73089;SDS011;61269;49.450;8.610;2023-04-24T11:20:04;2.70;;;1.13;;
73089;SDS011;61269;49.450;8.610;2023-04-24T11:22:52;2.75;;;1.50;;
73089;SDS011;61269;49.450;8.610;2023-04-24T11:25:22;3.50;;;1.60;;
73089;SDS011;61269;49.450;8.610;2023-04-24T11:27:52;3.15;;;1.50;;
73089;SDS011;61269;49.450;8.610;2023-04-24T11:30:31;2.60;;;1.33;;
73089;SDS011;61269;49.450;8.610;2023-04-24T11:33:03;3.03;;;1.20;;
73089;SDS011;61269;49.450;8.610;2023-04-24T11:35:35;4.50;;;1.33;;
73089;SDS011;61269;49.450;8.610;2023-04-24T11:38:05;1.80;;;1.08;;
73089;SDS011;61269;49.450;8.610;2023-04-24T11:40:38;3.47;;;1.30;;
73089;SDS011;61269;49.450;8.610;2023-04-24T11:43:07;3.35;;;1.65;;
73089;SDS011;61269;49.450;8.610;2023-04-24T11:45:37;2.50;;;1.23;;
73089;SDS011;61269;49.450;8.610;2023-04-24T11:48:19;3.20;;;1.40;;
73089;SDS011;61269;49.450;8.610;2023-04-24T11:50:50;2.42;;;1.27;;
73089;SDS011;61269;49.450;8.610;2023-04-24T11:53:19;3.95;;;1.77;;
73089;SDS011;61269;49.450;8.610;2023-04-24T11:55:48;3.28;;;1.35;;
73089;SDS011;61269;49.450;8.610;2023-04-24T11:58:20;3.23;;;1.20;;
73089;SDS011;61269;49.450;8.610;2023-04-24T12:00:55;2.75;;;1.48;;
73089;SDS011;61269;49.450;8.610;2023-04-24T12:03:26;3.47;;;1.60;;
73089;SDS011;61269;49.450;8.610;2023-04-24T12:06:04;2.58;;;1.23;;
73089;SDS011;61269;49.450;8.610;2023-04-24T12:08:33;2.30;;;1.27;;
73089;SDS011;61269;49.450;8.610;2023-04-24T12:11:07;4.30;;;1.83;;
73089;SDS011;61269;49.450;8.610;2023-04-24T12:13:35;3.75;;;1.42;;
73089;SDS011;61269;49.450;8.610;2023-04-24T12:16:04;2.65;;;1.50;;
73089;SDS011;61269;49.450;8.610;2023-04-24T12:18:33;3.22;;;1.60;;
73089;SDS011;61269;49.450;8.610;2023-04-24T12:21:14;3.67;;;1.60;;
73089;SDS011;61269;49.450;8.610;2023-04-24T12:23:43;2.80;;;1.43;;
73089;SDS011;61269;49.450;8.610;2023-04-24T12:26:12;4.85;;;1.50;;
73089;SDS011;61269;49.450;8.610;2023-04-24T12:28:42;2.00;;;1.20;;
73089;SDS011;61269;49.450;8.610;2023-04-24T12:31:10;5.40;;;2.10;;
73089;SDS011;61269;49.450;8.610;2023-04-24T12:33:39;3.20;;;1.60;;
73089;SDS011;61269;49.450;8.610;2023-04-24T12:36:09;4.50;;;1.60;;
73089;SDS011;61269;49.450;8.610;2023-04-24T12:38:39;3.95;;;1.70;;
73089;SDS011;61269;49.450;8.610;2023-04-24T12:41:11;3.72;;;1.63;;
73089;SDS011;61269;49.450;8.610;2023-04-24T12:43:50;3.65;;;1.67;;
73089;SDS011;61269;49.450;8.610;2023-04-24T12:46:19;2.92;;;1.40;;
73089;SDS011;61269;49.450;8.610;2023-04-24T12:48:50;3.03;;;1.47;;
73089;SDS011;61269;49.450;8.610;2023-04-24T12:51:18;2.75;;;1.65;;
73089;SDS011;61269;49.450;8.610;2023-04-24T12:53:46;5.45;;;1.83;;
73089;SDS011;61269;49.450;8.610;2023-04-24T12:56:14;3.85;;;1.50;;
73089;SDS011;61269;49.450;8.610;2023-04-24T12:58:43;5.03;;;1.65;;
73089;SDS011;61269;49.450;8.610;2023-04-24T13:01:12;4.80;;;2.20;;
73089;SDS011;61269;49.450;8.610;2023-04-24T13:03:40;3.15;;;1.60;;
73089;SDS011;61269;49.450;8.610;2023-04-24T13:06:11;6.22;;;2.33;;
73089;SDS011;61269;49.450;8.610;2023-04-24T13:08:39;4.72;;;1.90;;
73089;SDS011;61269;49.450;8.610;2023-04-24T13:11:07;4.38;;;1.65;;
73089;SDS011;61269;49.450;8.610;2023-04-24T13:13:35;3.63;;;1.27;;
73089;SDS011;61269;49.450;8.610;2023-04-24T13:16:04;5.45;;;1.70;;
73089;SDS011;61269;49.450;8.610;2023-04-24T13:18:32;3.65;;;1.90;;
73089;SDS011;61269;49.450;8.610;2023-04-24T13:21:00;3.00;;;1.20;;
73089;SDS011;61269;49.450;8.610;2023-04-24T13:23:30;3.33;;;1.52;;
73089;SDS011;61269;49.450;8.610;2023-04-24T13:25:59;3.60;;;1.50;;
73089;SDS011;61269;49.450;8.610;2023-04-24T13:28:27;3.33;;;1.65;;
73089;SDS011;61269;49.450;8.610;2023-04-24T13:30:56;3.47;;;1.63;;
73089;SDS011;61269;49.450;8.610;2023-04-24T13:33:24;4.68;;;2.00;;
73089;SDS011;61269;49.450;8.610;2023-04-24T13:35:55;3.85;;;1.52;;
73089;SDS011;61269;49.450;8.610;2023-04-24T13:38:23;3.37;;;1.30;;
73089;SDS011;61269;49.450;8.610;2023-04-24T13:40:53;2.95;;;1.50;;
73089;SDS011;61269;49.450;8.610;2023-04-24T13:43:21;3.42;;;1.70;;
73089;SDS011;61269;49.450;8.610;2023-04-24T13:45:49;2.72;;;1.23;;
73089;SDS011;61269;49.450;8.610;2023-04-24T13:48:17;4.05;;;1.65;;
73089;SDS011;61269;49.450;8.610;2023-04-24T13:50:46;2.63;;;1.37;;
73089;SDS011;61269;49.450;8.610;2023-04-24T13:53:15;2.75;;;1.25;;
73089;SDS011;61269;49.450;8.610;2023-04-24T13:55:44;3.53;;;1.60;;
73089;SDS011;61269;49.450;8.610;2023-04-24T13:58:13;3.63;;;1.00;;
73089;SDS011;61269;49.450;8.610;2023-04-24T14:00:41;2.90;;;1.40;;
73089;SDS011;61269;49.450;8.610;2023-04-24T14:03:10;4.13;;;1.83;;
73089;SDS011;61269;49.450;8.610;2023-04-24T14:05:39;3.33;;;1.45;;
73089;SDS011;61269;49.450;8.610;2023-04-24T14:08:08;3.72;;;1.63;;
73089;SDS011;61269;49.450;8.610;2023-04-24T14:10:36;3.03;;;1.30;;
73089;SDS011;61269;49.450;8.610;2023-04-24T14:13:04;3.03;;;1.60;;
73089;SDS011;61269;49.450;8.610;2023-04-24T14:15:34;3.20;;;1.50;;
73089;SDS011;61269;49.450;8.610;2023-04-24T14:18:03;4.43;;;1.73;;
73089;SDS011;61269;49.450;8.610;2023-04-24T14:20:32;3.83;;;1.77;;
73089;SDS011;61269;49.450;8.610;2023-04-24T14:23:00;5.68;;;1.60;;
73089;SDS011;61269;49.450;8.610;2023-04-24T14:25:28;4.70;;;1.70;;
73089;SDS011;61269;49.450;8.610;2023-04-24T14:27:56;2.73;;;1.30;;
73089;SDS011;61269;49.450;8.610;2023-04-24T14:30:25;3.00;;;1.20;;
73089;SDS011;61269;49.450;8.610;2023-04-24T14:32:54;3.67;;;1.52;;
73089;SDS011;61269;49.450;8.610;2023-04-24T14:35:22;4.30;;;1.45;;
73089;SDS011;61269;49.450;8.610;2023-04-24T14:37:51;2.53;;;1.40;;
73089;SDS011;61269;49.450;8.610;2023-04-24T14:40:19;3.80;;;1.63;;
73089;SDS011;61269;49.450;8.610;2023-04-24T14:42:55;4.97;;;1.70;;
73089;SDS011;61269;49.450;8.610;2023-04-24T14:45:24;4.30;;;2.03;;
73089;SDS011;61269;49.450;8.610;2023-04-24T14:47:54;4.93;;;1.98;;
73089;SDS011;61269;49.450;8.610;2023-04-24T14:50:23;4.50;;;1.80;;
73089;SDS011;61269;49.450;8.610;2023-04-24T14:52:54;4.60;;;2.27;;
73089;SDS011;61269;49.450;8.610;2023-04-24T14:55:24;4.68;;;2.10;;
73089;SDS011;61269;49.450;8.610;2023-04-24T14:57:52;4.57;;;2.25;;
73089;SDS011;61269;49.450;8.610;2023-04-24T15:00:21;5.03;;;2.30;;
73089;SDS011;61269;49.450;8.610;2023-04-24T15:02:49;5.22;;;2.60;;
73089;SDS011;61269;49.450;8.610;2023-04-24T15:05:20;5.10;;;2.43;;
73089;SDS011;61269;49.450;8.610;2023-04-24T15:07:48;5.65;;;2.45;;